Arnold, Kansas
Current Conditions -  °F | °C
As of 6:55 AM on Thursday 30 Oct 2014 (Local Time) from KHYS Reporting Station
Clear Clear  
Wind Chill: 43°   Ceiling: Unl
Heat Index: 48°   Visibility: 10mi
Dew Point: 28°   Wind: 13mph
Humidity: 46%   Direction: 320°NW
Pressure: 30.11"   Gusts: NA
Location:  38.64°N, 100.05°W
Report Text: KHYS 301155Z AUTO 32011KT 10SM CLR 09/M02 A3011 RMK AO1 10110 20080 52027
Loading
Personal Weather Stations






























Interactive Weather Map
Tropical Storm Tracking
New forecast layout! Learn more

10-Day Weather Forecast

Advertisements
Track Severe Weather on mobile